Time;durP1;ratioP1;P1;durP2;ratioP2;P2;SDS_P1;SDS_P2;PMS_P1;PMS_P2;Temp;Humidity;BMP_temperature;BMP_pressure;BME280_temperature;BME280_humidity;BME280_pressure;Samples;Min_cycle;Max_cycle;Signal;HPM_P1;HPM_P2
2021/09/18 00:00:16;;;;;;;15.75;12.63;;;;;;;;;;5006813;28;20196;-73
2021/09/18 00:02:41;;;;;;;14.50;11.88;;;;;;;;;;4991913;28;20195;-72
2021/09/18 00:05:06;;;;;;;14.55;12.05;;;;;;;;;;4992207;28;20662;-72
2021/09/18 00:07:32;;;;;;;11.20;10.05;;;;;;;;;;4991466;28;20294;-72
2021/09/18 00:09:57;;;;;;;12.13;10.77;;;;;;;;;;5007955;28;21327;-72
2021/09/18 00:12:22;;;;;;;12.57;11.27;;;;;;;;;;5012827;28;20713;-71
2021/09/18 00:14:47;;;;;;;14.82;12.48;;;;;;;;;;5013260;28;20183;-72
2021/09/18 00:17:12;;;;;;;11.43;10.30;;;;;;;;;;5009740;28;20202;-72
2021/09/18 00:19:38;;;;;;;12.73;9.90;;;;;;;;;;5010812;28;20171;-72
2021/09/18 00:22:03;;;;;;;12.02;10.80;;;;;;;;;;5012110;28;20214;-73
2021/09/18 00:24:28;;;;;;;15.98;14.00;;;;;;;;;;5011902;28;20179;-70
2021/09/18 00:26:53;;;;;;;14.80;13.25;;;;;;;;;;5026564;22;20209;-71
2021/09/18 00:29:18;;;;;;;17.75;13.35;;;;;;;;;;4990910;28;20215;-70
2021/09/18 00:31:44;;;;;;;12.70;11.05;;;;;;;;;;4990062;28;20207;-70
2021/09/18 00:34:09;;;;;;;13.35;11.43;;;;;;;;;;4992214;28;20182;-70
2021/09/18 00:36:34;;;;;;;13.77;11.02;;;;;;;;;;4988861;28;21012;-70
2021/09/18 00:39:00;;;;;;;14.43;12.93;;;;;;;;;;4990185;28;20203;-69
2021/09/18 00:41:25;;;;;;;14.93;12.60;;;;;;;;;;4981324;28;20183;-70
2021/09/18 00:43:54;;;;;;;19.92;14.82;;;;;;;;;;4988780;28;20283;-70
2021/09/18 00:46:20;;;;;;;17.00;14.43;;;;;;;;;;4988135;28;20188;-70
2021/09/18 00:48:45;;;;;;;17.52;14.27;;;;;;;;;;4990179;28;20257;-70
2021/09/18 00:51:10;;;;;;;19.08;14.48;;;;;;;;;;4970207;28;20211;-70
2021/09/18 00:53:36;;;;;;;14.20;12.43;;;;;;;;;;4988207;28;20254;-70
2021/09/18 00:56:01;;;;;;;15.65;11.70;;;;;;;;;;4975289;28;20561;-69
2021/09/18 00:58:26;;;;;;;14.52;12.10;;;;;;;;;;4986523;28;20527;-70
2021/09/18 01:00:51;;;;;;;14.85;12.98;;;;;;;;;;4988133;28;20182;-70
2021/09/18 01:03:16;;;;;;;19.73;14.50;;;;;;;;;;4992489;28;20716;-70
2021/09/18 01:05:42;;;;;;;16.13;14.10;;;;;;;;;;4990508;28;20203;-70
2021/09/18 01:08:10;;;;;;;16.55;12.82;;;;;;;;;;4986142;28;20211;-70
2021/09/18 01:10:35;;;;;;;16.98;13.73;;;;;;;;;;4965704;28;20262;-70
2021/09/18 01:13:05;;;;;;;16.15;12.82;;;;;;;;;;4991635;28;20179;-70
2021/09/18 01:15:33;;;;;;;22.83;16.75;;;;;;;;;;4990098;28;20245;-69
2021/09/18 01:17:58;;;;;;;22.42;17.02;;;;;;;;;;4963249;28;21094;-70
2021/09/18 01:20:24;;;;;;;17.40;14.10;;;;;;;;;;4969880;28;20180;-69
2021/09/18 01:22:50;;;;;;;21.65;16.52;;;;;;;;;;4974574;28;20279;-70
2021/09/18 01:25:15;;;;;;;23.65;16.20;;;;;;;;;;4969507;28;20192;-70
2021/09/18 01:27:43;;;;;;;19.75;15.38;;;;;;;;;;4972574;28;20293;-70
2021/09/18 01:30:08;;;;;;;26.17;18.55;;;;;;;;;;4973485;28;20223;-70
2021/09/18 01:32:34;;;;;;;21.00;16.55;;;;;;;;;;4975771;28;20318;-70
2021/09/18 01:34:59;;;;;;;24.50;15.82;;;;;;;;;;4970077;28;20202;-70
2021/09/18 01:37:26;;;;;;;24.75;17.45;;;;;;;;;;4968693;28;20282;-70
2021/09/18 01:39:52;;;;;;;17.95;14.68;;;;;;;;;;4969549;28;20275;-71
2021/09/18 01:42:17;;;;;;;17.80;12.98;;;;;;;;;;4974711;28;20325;-68
2021/09/18 01:44:42;;;;;;;27.20;17.83;;;;;;;;;;4969615;28;20239;-70
2021/09/18 01:47:07;;;;;;;22.63;17.20;;;;;;;;;;4950449;28;20204;-70
2021/09/18 01:49:32;;;;;;;25.33;18.42;;;;;;;;;;4972039;28;20242;-70
2021/09/18 01:52:06;;;;;;;25.55;18.92;;;;;;;;;;4970586;28;20206;-70
2021/09/18 01:54:33;;;;;;;24.67;17.80;;;;;;;;;;4972576;28;20183;-70
2021/09/18 01:56:59;;;;;;;24.60;17.30;;;;;;;;;;4977673;28;20243;-70
2021/09/18 01:59:24;;;;;;;27.65;19.05;;;;;;;;;;4971972;28;20592;-70
2021/09/18 02:01:49;;;;;;;32.13;21.45;;;;;;;;;;4984624;28;20189;-70
2021/09/18 02:04:14;;;;;;;32.63;23.33;;;;;;;;;;4970138;28;21021;-68
2021/09/18 02:06:39;;;;;;;34.17;23.42;;;;;;;;;;4968536;28;20182;-70
2021/09/18 02:09:05;;;;;;;34.17;24.10;;;;;;;;;;4970080;28;20207;-68
2021/09/18 02:11:30;;;;;;;31.42;22.10;;;;;;;;;;4971581;28;20212;-70
2021/09/18 02:13:55;;;;;;;27.92;19.63;;;;;;;;;;4969183;28;20180;-69
2021/09/18 02:16:20;;;;;;;26.05;19.17;;;;;;;;;;4974316;28;20646;-71
2021/09/18 02:18:46;;;;;;;23.30;16.33;;;;;;;;;;4971584;28;20208;-71
2021/09/18 02:21:11;;;;;;;31.48;22.10;;;;;;;;;;4954743;28;20186;-68
2021/09/18 02:23:36;;;;;;;54.35;24.20;;;;;;;;;;4970540;28;20969;-70
2021/09/18 02:26:02;;;;;;;37.03;24.58;;;;;;;;;;4975168;28;20184;-71
2021/09/18 02:28:27;;;;;;;29.13;19.27;;;;;;;;;;4976485;28;20646;-68
2021/09/18 02:30:52;;;;;;;25.42;18.27;;;;;;;;;;4981546;28;20211;-70
2021/09/18 02:33:17;;;;;;;26.30;18.42;;;;;;;;;;4976021;28;20179;-71
2021/09/18 02:35:43;;;;;;;27.53;18.80;;;;;;;;;;4955690;28;20721;-69
2021/09/18 02:38:08;;;;;;;34.53;21.80;;;;;;;;;;4976554;28;20210;-70
2021/09/18 02:40:35;;;;;;;34.27;22.33;;;;;;;;;;4971297;28;20198;-70
2021/09/18 02:43:01;;;;;;;39.22;25.40;;;;;;;;;;4972166;28;20184;-70
2021/09/18 02:45:27;;;;;;;37.22;24.08;;;;;;;;;;4974907;28;20266;-71
2021/09/18 02:47:52;;;;;;;39.05;25.02;;;;;;;;;;4974135;28;20291;-71
2021/09/18 02:50:18;;;;;;;46.20;27.85;;;;;;;;;;4971615;28;20282;-72
2021/09/18 02:52:43;;;;;;;38.67;24.95;;;;;;;;;;4973059;28;20207;-69
2021/09/18 02:55:09;;;;;;;30.85;21.75;;;;;;;;;;4972193;28;20326;-68
2021/09/18 02:57:34;;;;;;;40.08;25.05;;;;;;;;;;4976100;28;20210;-69
2021/09/18 02:59:59;;;;;;;44.95;27.08;;;;;;;;;;4970762;28;20212;-68
2021/09/18 03:02:24;;;;;;;39.13;25.73;;;;;;;;;;4981146;28;20606;-69
2021/09/18 03:04:50;;;;;;;40.30;26.58;;;;;;;;;;4971707;28;20195;-69
2021/09/18 03:07:15;;;;;;;39.83;23.80;;;;;;;;;;4973216;28;20927;-69
2021/09/18 03:09:40;;;;;;;41.78;25.15;;;;;;;;;;4974742;28;20187;-69
2021/09/18 03:12:05;;;;;;;42.88;27.13;;;;;;;;;;4957168;28;20219;-69
2021/09/18 03:14:30;;;;;;;41.03;26.23;;;;;;;;;;4972945;28;20271;-69
2021/09/18 03:16:56;;;;;;;37.97;25.65;;;;;;;;;;4970012;28;20207;-69
2021/09/18 03:19:21;;;;;;;41.07;26.80;;;;;;;;;;4978194;28;20180;-69
2021/09/18 03:21:46;;;;;;;37.30;25.02;;;;;;;;;;4990448;28;20222;-69
2021/09/18 03:24:13;;;;;;;44.50;27.40;;;;;;;;;;4993752;28;20255;-69
2021/09/18 03:26:40;;;;;;;40.72;27.35;;;;;;;;;;4972760;28;20175;-70
2021/09/18 03:29:05;;;;;;;41.42;26.80;;;;;;;;;;4975369;28;20642;-70
2021/09/18 03:31:30;;;;;;;45.05;28.50;;;;;;;;;;4976751;28;20207;-70
2021/09/18 03:33:56;;;;;;;49.10;29.33;;;;;;;;;;4975482;28;20184;-69
2021/09/18 03:36:21;;;;;;;54.33;33.50;;;;;;;;;;4969338;28;20200;-68
2021/09/18 03:38:46;;;;;;;44.40;27.80;;;;;;;;;;4953575;28;20196;-71
2021/09/18 03:41:11;;;;;;;49.33;30.17;;;;;;;;;;4975142;28;20196;-71
2021/09/18 03:43:36;;;;;;;46.78;29.02;;;;;;;;;;4975272;28;20192;-70
2021/09/18 03:46:01;;;;;;;53.58;32.83;;;;;;;;;;4976988;28;20197;-71
2021/09/18 03:48:27;;;;;;;53.97;33.30;;;;;;;;;;4993292;28;20651;-68
2021/09/18 03:50:52;;;;;;;61.23;34.03;;;;;;;;;;4988340;28;20207;-69
2021/09/18 03:53:17;;;;;;;59.75;32.53;;;;;;;;;;4955074;28;20176;-68
2021/09/18 03:55:42;;;;;;;44.22;28.65;;;;;;;;;;4974284;28;20559;-71
2021/09/18 03:58:07;;;;;;;41.77;24.00;;;;;;;;;;4975825;28;20231;-71
2021/09/18 04:00:33;;;;;;;45.70;27.30;;;;;;;;;;4955129;28;20218;-70
2021/09/18 04:02:58;;;;;;;54.67;31.73;;;;;;;;;;4976307;28;20188;-71
2021/09/18 04:05:23;;;;;;;54.50;30.08;;;;;;;;;;4972080;28;20211;-69
2021/09/18 04:07:48;;;;;;;43.63;26.73;;;;;;;;;;4973416;28;21345;-71
2021/09/18 04:10:14;;;;;;;48.22;28.88;;;;;;;;;;4969692;28;20215;-69
2021/09/18 04:12:39;;;;;;;49.13;29.98;;;;;;;;;;4973156;28;20187;-69
2021/09/18 04:15:05;;;;;;;49.95;30.20;;;;;;;;;;4971501;28;20779;-70
2021/09/18 04:17:30;;;;;;;56.80;32.05;;;;;;;;;;4979381;28;20196;-68
2021/09/18 04:19:55;;;;;;;46.20;28.80;;;;;;;;;;4970315;28;20192;-70
2021/09/18 04:22:20;;;;;;;49.17;29.15;;;;;;;;;;4976302;28;20171;-70
2021/09/18 04:24:45;;;;;;;46.53;29.35;;;;;;;;;;4976163;28;20576;-70
2021/09/18 04:27:11;;;;;;;55.03;31.02;;;;;;;;;;4973067;28;20268;-71
2021/09/18 04:29:36;;;;;;;49.08;28.63;;;;;;;;;;4975364;28;20179;-68
2021/09/18 04:32:01;;;;;;;53.85;29.00;;;;;;;;;;4953819;28;20781;-70
2021/09/18 04:34:27;;;;;;;48.70;29.80;;;;;;;;;;4973931;28;20727;-68
2021/09/18 04:36:52;;;;;;;52.28;30.92;;;;;;;;;;4970866;28;20580;-71
2021/09/18 04:39:18;;;;;;;51.27;31.93;;;;;;;;;;4971651;28;20176;-70
2021/09/18 04:41:43;;;;;;;44.78;27.80;;;;;;;;;;4973241;28;20390;-71
2021/09/18 04:44:08;;;;;;;37.08;24.38;;;;;;;;;;4971826;28;20874;-71
2021/09/18 04:46:34;;;;;;;36.00;24.23;;;;;;;;;;4977511;28;20784;-70
2021/09/18 04:48:59;;;;;;;40.78;26.48;;;;;;;;;;4973043;28;20327;-70
2021/09/18 04:51:24;;;;;;;54.42;28.58;;;;;;;;;;4974662;28;20215;-70
2021/09/18 04:53:49;;;;;;;43.25;26.80;;;;;;;;;;4971031;28;20229;-71
2021/09/18 04:56:14;;;;;;;40.15;25.70;;;;;;;;;;4981196;28;20180;-69
2021/09/18 04:58:39;;;;;;;40.40;25.57;;;;;;;;;;4968419;28;20784;-70
2021/09/18 05:01:05;;;;;;;49.45;28.75;;;;;;;;;;4972107;28;20222;-70
2021/09/18 05:03:30;;;;;;;48.87;29.93;;;;;;;;;;4978631;28;20657;-71
2021/09/18 05:05:55;;;;;;;46.13;29.00;;;;;;;;;;4954481;28;20179;-70
2021/09/18 05:08:20;;;;;;;43.38;27.35;;;;;;;;;;4972985;28;20553;-70
2021/09/18 05:10:45;;;;;;;49.20;29.58;;;;;;;;;;4974901;28;20211;-70
2021/09/18 05:13:10;;;;;;;44.78;29.45;;;;;;;;;;4969785;28;20581;-71
2021/09/18 05:15:36;;;;;;;51.45;30.60;;;;;;;;;;4979500;28;20190;-71
2021/09/18 05:18:01;;;;;;;50.47;29.70;;;;;;;;;;4972231;28;20199;-70
2021/09/18 05:20:26;;;;;;;53.65;33.30;;;;;;;;;;4971058;28;20193;-70
2021/09/18 05:22:52;;;;;;;51.53;30.75;;;;;;;;;;4972648;28;20226;-70
2021/09/18 05:25:17;;;;;;;57.15;31.95;;;;;;;;;;4974346;28;20195;-70
2021/09/18 05:27:42;;;;;;;55.55;34.40;;;;;;;;;;4971010;28;20515;-71
2021/09/18 05:30:08;;;;;;;49.60;30.13;;;;;;;;;;4973471;28;20199;-70
2021/09/18 05:32:33;;;;;;;48.20;29.80;;;;;;;;;;4980556;28;20187;-68
2021/09/18 05:34:59;;;;;;;55.70;31.13;;;;;;;;;;4972150;28;20187;-70
2021/09/18 05:37:24;;;;;;;41.95;27.10;;;;;;;;;;4974717;28;20203;-70
2021/09/18 05:39:49;;;;;;;46.55;29.73;;;;;;;;;;4953127;28;20711;-69
2021/09/18 05:42:14;;;;;;;52.28;30.15;;;;;;;;;;4969611;28;20202;-69
2021/09/18 05:44:40;;;;;;;49.08;29.42;;;;;;;;;;4971700;28;20194;-68
2021/09/18 05:47:05;;;;;;;52.38;27.35;;;;;;;;;;4970337;28;20551;-69
2021/09/18 05:49:30;;;;;;;48.38;31.48;;;;;;;;;;4969306;28;20196;-70
2021/09/18 05:51:57;;;;;;;52.05;31.38;;;;;;;;;;4972776;28;20722;-69
2021/09/18 05:54:22;;;;;;;51.30;30.55;;;;;;;;;;4970715;28;20183;-68
2021/09/18 05:56:47;;;;;;;47.38;31.73;;;;;;;;;;4976848;28;20404;-69
2021/09/18 05:59:12;;;;;;;53.03;32.58;;;;;;;;;;4970027;28;20217;-68
2021/09/18 06:01:37;;;;;;;54.13;33.83;;;;;;;;;;4977265;28;20809;-69
2021/09/18 06:04:03;;;;;;;60.40;38.28;;;;;;;;;;4976843;28;20203;-69
2021/09/18 06:06:28;;;;;;;50.75;32.80;;;;;;;;;;4977620;28;20258;-68
2021/09/18 06:08:53;;;;;;;45.13;30.73;;;;;;;;;;4974019;28;20308;-71
2021/09/18 06:11:18;;;;;;;49.33;33.25;;;;;;;;;;4974168;28;20211;-70
2021/09/18 06:13:43;;;;;;;43.08;27.40;;;;;;;;;;4973774;28;20676;-71
2021/09/18 06:16:09;;;;;;;36.13;27.08;;;;;;;;;;4976297;28;20186;-70
2021/09/18 06:18:34;;;;;;;34.93;24.90;;;;;;;;;;4979480;28;20747;-68
2021/09/18 06:21:00;;;;;;;30.73;24.00;;;;;;;;;;4978915;28;20428;-69
2021/09/18 06:23:28;;;;;;;28.52;22.13;;;;;;;;;;4976184;28;20649;-69
2021/09/18 06:25:53;;;;;;;29.98;21.25;;;;;;;;;;4978209;28;20183;-69
2021/09/18 06:28:18;;;;;;;28.85;23.17;;;;;;;;;;5005056;23;20241;-74
2021/09/18 06:30:44;;;;;;;28.20;21.65;;;;;;;;;;5015418;28;20214;-74
2021/09/18 06:33:09;;;;;;;24.25;19.48;;;;;;;;;;5019908;28;20308;-74
2021/09/18 06:35:34;;;;;;;21.67;18.85;;;;;;;;;;5016395;28;20301;-74
2021/09/18 06:37:59;;;;;;;21.58;17.80;;;;;;;;;;5011860;28;20214;-72
2021/09/18 06:40:25;;;;;;;19.90;16.57;;;;;;;;;;4997315;28;20282;-74
2021/09/18 06:42:51;;;;;;;18.88;14.95;;;;;;;;;;4993214;28;20413;-75
2021/09/18 06:45:16;;;;;;;20.95;14.60;;;;;;;;;;4990661;28;20752;-74
2021/09/18 06:47:41;;;;;;;19.33;14.25;;;;;;;;;;4993874;28;20211;-74
2021/09/18 06:50:07;;;;;;;15.63;12.00;;;;;;;;;;4994957;28;20442;-74
2021/09/18 06:52:32;;;;;;;16.27;13.75;;;;;;;;;;4996230;28;20179;-74
2021/09/18 06:54:57;;;;;;;17.42;13.27;;;;;;;;;;4991194;28;20179;-74
2021/09/18 06:57:22;;;;;;;17.50;12.60;;;;;;;;;;4995546;28;21339;-73
2021/09/18 06:59:48;;;;;;;13.17;11.17;;;;;;;;;;4992961;28;20191;-73
2021/09/18 07:02:13;;;;;;;18.65;13.00;;;;;;;;;;5001014;28;20934;-73
2021/09/18 07:04:39;;;;;;;18.25;13.68;;;;;;;;;;5001846;28;20554;-74
2021/09/18 07:07:04;;;;;;;16.08;12.57;;;;;;;;;;4993062;28;20724;-74
2021/09/18 07:09:30;;;;;;;16.33;12.82;;;;;;;;;;4993624;28;20218;-73
2021/09/18 07:11:55;;;;;;;15.80;12.55;;;;;;;;;;5000080;28;20215;-74
2021/09/18 07:14:20;;;;;;;16.58;13.02;;;;;;;;;;4992743;28;20175;-73
2021/09/18 07:16:45;;;;;;;14.95;12.85;;;;;;;;;;4992743;28;20509;-74
2021/09/18 07:19:11;;;;;;;17.88;13.27;;;;;;;;;;4989220;28;20202;-74
2021/09/18 07:21:37;;;;;;;18.65;13.25;;;;;;;;;;5001762;28;20217;-74
2021/09/18 07:24:02;;;;;;;15.43;12.45;;;;;;;;;;4987541;28;20179;-73
2021/09/18 07:26:27;;;;;;;15.32;11.60;;;;;;;;;;4997490;28;20672;-73
2021/09/18 07:28:53;;;;;;;15.05;11.35;;;;;;;;;;4991623;28;20218;-74
2021/09/18 07:31:18;;;;;;;14.95;11.40;;;;;;;;;;4982537;28;20594;-74
2021/09/18 07:33:43;;;;;;;15.13;11.97;;;;;;;;;;4996460;28;20186;-73
2021/09/18 07:36:08;;;;;;;14.10;11.23;;;;;;;;;;4993991;28;20539;-74
2021/09/18 07:38:33;;;;;;;15.10;11.27;;;;;;;;;;4994256;28;20453;-74
2021/09/18 07:40:59;;;;;;;14.93;11.40;;;;;;;;;;4993692;28;20805;-74
2021/09/18 07:43:24;;;;;;;14.43;11.75;;;;;;;;;;4991490;28;20274;-73
2021/09/18 07:45:49;;;;;;;13.07;10.65;;;;;;;;;;4997217;28;20190;-73
2021/09/18 07:48:14;;;;;;;13.10;10.07;;;;;;;;;;4994165;28;20289;-74
2021/09/18 07:50:40;;;;;;;13.30;11.60;;;;;;;;;;4982826;28;20257;-71
2021/09/18 07:53:07;;;;;;;13.98;10.00;;;;;;;;;;4996681;28;20434;-71
2021/09/18 07:55:32;;;;;;;13.27;10.35;;;;;;;;;;4994099;28;20715;-71
2021/09/18 07:57:57;;;;;;;12.55;10.15;;;;;;;;;;4993905;28;20199;-71
2021/09/18 08:00:23;;;;;;;14.20;10.87;;;;;;;;;;4991569;28;20697;-72
2021/09/18 08:02:48;;;;;;;12.52;10.05;;;;;;;;;;4994582;28;20495;-71
2021/09/18 08:05:13;;;;;;;12.90;9.52;;;;;;;;;;4991908;28;20183;-71
2021/09/18 08:07:38;;;;;;;11.55;10.30;;;;;;;;;;4991576;28;20211;-71
2021/09/18 08:10:07;;;;;;;12.20;10.18;;;;;;;;;;4994639;28;20187;-72
2021/09/18 08:12:32;;;;;;;11.35;10.25;;;;;;;;;;5001269;28;20220;-71
2021/09/18 08:14:58;;;;;;;11.20;9.30;;;;;;;;;;4994940;28;20186;-71
2021/09/18 08:17:23;;;;;;;12.43;9.30;;;;;;;;;;5000995;28;20821;-71
2021/09/18 08:19:48;;;;;;;13.37;9.63;;;;;;;;;;4988767;28;20459;-71
2021/09/18 08:22:13;;;;;;;12.00;10.77;;;;;;;;;;4997595;28;20454;-71
2021/09/18 08:24:38;;;;;;;14.40;11.13;;;;;;;;;;4991132;28;20439;-71
2021/09/18 08:27:04;;;;;;;13.38;10.20;;;;;;;;;;4992402;28;20520;-72
2021/09/18 08:29:29;;;;;;;11.48;9.27;;;;;;;;;;4993317;28;20761;-71
2021/09/18 08:31:54;;;;;;;11.02;8.98;;;;;;;;;;4996403;28;20673;-71
2021/09/18 08:34:19;;;;;;;9.20;8.30;;;;;;;;;;4979595;28;20188;-71
2021/09/18 08:36:45;;;;;;;15.07;9.10;;;;;;;;;;4976742;28;20198;-71
2021/09/18 08:39:10;;;;;;;9.90;8.90;;;;;;;;;;4991408;28;20440;-71
2021/09/18 08:41:35;;;;;;;9.82;8.68;;;;;;;;;;5000814;28;20189;-70
2021/09/18 08:44:01;;;;;;;10.30;8.30;;;;;;;;;;4993415;28;20186;-70
2021/09/18 08:46:28;;;;;;;12.07;10.07;;;;;;;;;;4994264;28;20214;-71
2021/09/18 08:48:54;;;;;;;10.85;9.25;;;;;;;;;;4992586;28;21004;-71
2021/09/18 08:51:19;;;;;;;16.02;11.00;;;;;;;;;;4993226;28;20224;-71
2021/09/18 08:53:45;;;;;;;10.80;9.70;;;;;;;;;;4991665;28;20184;-71
2021/09/18 08:56:10;;;;;;;12.52;10.10;;;;;;;;;;4994659;28;20416;-71
2021/09/18 08:58:35;;;;;;;11.65;10.45;;;;;;;;;;4992922;28;20222;-71
2021/09/18 09:01:01;;;;;;;13.77;10.17;;;;;;;;;;4992953;28;20605;-72
2021/09/18 09:03:30;;;;;;;12.07;10.88;;;;;;;;;;4995317;28;20519;-70
2021/09/18 09:06:00;;;;;;;11.35;10.15;;;;;;;;;;4991720;28;20623;-70
2021/09/18 09:08:25;;;;;;;14.00;10.30;;;;;;;;;;4976822;28;20200;-70
2021/09/18 09:10:52;;;;;;;17.70;11.33;;;;;;;;;;4989441;28;20205;-70
2021/09/18 09:13:18;;;;;;;14.05;11.23;;;;;;;;;;4992447;28;20182;-70
2021/09/18 09:15:45;;;;;;;12.90;11.60;;;;;;;;;;4996411;28;20262;-71
2021/09/18 09:18:28;;;;;;;15.80;12.60;;;;;;;;;;4992277;28;20199;-71
2021/09/18 09:21:13;;;;;;;12.40;10.73;;;;;;;;;;4982607;28;20191;-71
2021/09/18 09:23:39;;;;;;;11.73;10.07;;;;;;;;;;4990843;28;20505;-71
2021/09/18 09:26:05;;;;;;;12.95;10.90;;;;;;;;;;4995886;28;20231;-70
2021/09/18 09:28:33;;;;;;;11.63;10.32;;;;;;;;;;4991259;28;20245;-70
2021/09/18 09:31:08;;;;;;;11.60;10.18;;;;;;;;;;4992249;28;20291;-70
2021/09/18 09:33:33;;;;;;;12.15;10.60;;;;;;;;;;4997611;28;20234;-70
2021/09/18 09:36:12;;;;;;;10.83;9.70;;;;;;;;;;4990884;28;20269;-70
2021/09/18 09:38:37;;;;;;;15.25;10.73;;;;;;;;;;4991141;28;20504;-69
2021/09/18 09:41:02;;;;;;;9.20;8.30;;;;;;;;;;4993511;28;20183;-70
2021/09/18 09:43:42;;;;;;;12.68;9.77;;;;;;;;;;4993000;28;20914;-70
2021/09/18 09:46:11;;;;;;;9.57;8.15;;;;;;;;;;4995831;28;20213;-69
2021/09/18 09:48:36;;;;;;;12.35;9.02;;;;;;;;;;4990722;28;20194;-69
2021/09/18 09:51:02;;;;;;;12.13;9.33;;;;;;;;;;4991816;28;20207;-70
2021/09/18 09:53:32;;;;;;;9.43;6.88;;;;;;;;;;4974611;28;20179;-70
2021/09/18 09:55:57;;;;;;;7.93;7.13;;;;;;;;;;4994831;28;20179;-70
2021/09/18 09:58:23;;;;;;;8.18;6.68;;;;;;;;;;4990159;28;20237;-70
2021/09/18 10:00:51;;;;;;;6.40;5.18;;;;;;;;;;4991543;28;20186;-71
2021/09/18 10:03:20;;;;;;;6.05;4.80;;;;;;;;;;4990866;28;20188;-71
2021/09/18 10:05:46;;;;;;;4.90;4.45;;;;;;;;;;4995331;28;20625;-70
2021/09/18 10:08:12;;;;;;;5.28;4.78;;;;;;;;;;4992502;28;20261;-70
2021/09/18 10:10:39;;;;;;;10.30;6.43;;;;;;;;;;4991921;28;20241;-70
2021/09/18 10:13:04;;;;;;;6.10;4.78;;;;;;;;;;4988454;28;20195;-70
2021/09/18 10:15:30;;;;;;;7.20;4.43;;;;;;;;;;4993123;28;20714;-71
2021/09/18 10:17:57;;;;;;;4.50;4.10;;;;;;;;;;4992935;28;20873;-71
2021/09/18 10:25:35;;;;;;;4.18;3.78;;;;;;;;;;4994484;28;20707;-71
2021/09/18 10:28:09;;;;;;;4.75;4.25;;;;;;;;;;4994011;28;20215;-71
2021/09/18 10:30:38;;;;;;;5.38;4.15;;;;;;;;;;4990460;28;20988;-70
2021/09/18 10:33:04;;;;;;;4.05;3.55;;;;;;;;;;4993648;28;20175;-70
2021/09/18 10:35:30;;;;;;;5.50;4.90;;;;;;;;;;4996683;28;20197;-70
2021/09/18 10:37:55;;;;;;;4.03;3.60;;;;;;;;;;4990620;28;20199;-71
2021/09/18 10:40:21;;;;;;;4.80;4.40;;;;;;;;;;4991986;28;20591;-70
2021/09/18 10:42:47;;;;;;;4.05;3.45;;;;;;;;;;4990210;28;20182;-70
2021/09/18 10:45:13;;;;;;;4.40;4.00;;;;;;;;;;4990466;28;20183;-70
2021/09/18 10:47:47;;;;;;;5.22;4.03;;;;;;;;;;4993110;28;21074;-70
2021/09/18 10:50:22;;;;;;;4.78;3.97;;;;;;;;;;4991822;28;20210;-70
2021/09/18 10:53:00;;;;;;;3.92;3.53;;;;;;;;;;4994284;28;20190;-70
2021/09/18 10:55:26;;;;;;;3.50;2.30;;;;;;;;;;4995889;28;21353;-71
2021/09/18 10:57:52;;;;;;;1.70;1.55;;;;;;;;;;4995201;28;20214;-70
2021/09/18 11:00:17;;;;;;;2.15;1.10;;;;;;;;;;4992840;28;20179;-72
2021/09/18 11:02:45;;;;;;;1.50;1.40;;;;;;;;;;4991918;28;20666;-71
2021/09/18 11:05:22;;;;;;;2.75;1.80;;;;;;;;;;4992570;28;20182;-70
2021/09/18 11:08:10;;;;;;;2.05;1.88;;;;;;;;;;4993962;28;20237;-70
2021/09/18 11:10:35;;;;;;;2.70;2.35;;;;;;;;;;4978106;28;20218;-70
2021/09/18 11:13:09;;;;;;;3.33;1.95;;;;;;;;;;4993941;28;20186;-71
2021/09/18 11:15:54;;;;;;;2.13;1.67;;;;;;;;;;4998403;28;20263;-70
2021/09/18 11:18:34;;;;;;;3.22;1.98;;;;;;;;;;4992975;28;20186;-70
2021/09/18 11:21:08;;;;;;;2.17;1.98;;;;;;;;;;4997308;28;20185;-71
2021/09/18 11:23:34;;;;;;;2.55;1.90;;;;;;;;;;4992621;28;20899;-70
2021/09/18 11:25:59;;;;;;;3.60;2.00;;;;;;;;;;5002008;28;20202;-70
2021/09/18 11:28:32;;;;;;;2.50;1.83;;;;;;;;;;4991265;28;20214;-70
2021/09/18 11:30:57;;;;;;;2.08;1.70;;;;;;;;;;4992669;28;21242;-70
2021/09/18 11:33:23;;;;;;;2.47;1.63;;;;;;;;;;4995196;28;20192;-70
2021/09/18 11:35:54;;;;;;;2.53;1.55;;;;;;;;;;4976616;28;20261;-70
2021/09/18 11:38:29;;;;;;;2.95;1.95;;;;;;;;;;4992416;28;20290;-71
2021/09/18 11:41:04;;;;;;;3.65;2.35;;;;;;;;;;4994280;28;20288;-70
2021/09/18 11:43:29;;;;;;;3.15;1.73;;;;;;;;;;4992956;28;20183;-70
2021/09/18 11:45:54;;;;;;;2.45;1.55;;;;;;;;;;4992176;28;20203;-70
2021/09/18 11:48:22;;;;;;;2.03;1.80;;;;;;;;;;4991987;28;20259;-70
2021/09/18 11:50:47;;;;;;;3.88;2.00;;;;;;;;;;4996611;28;20202;-70
2021/09/18 11:53:13;;;;;;;2.08;1.58;;;;;;;;;;4989991;28;20201;-70
2021/09/18 11:55:38;;;;;;;2.78;1.83;;;;;;;;;;4992835;28;20966;-69
2021/09/18 11:58:06;;;;;;;2.70;1.73;;;;;;;;;;4990688;28;21742;-70
2021/09/18 12:00:32;;;;;;;2.95;1.83;;;;;;;;;;4992556;28;20814;-70
2021/09/18 12:02:58;;;;;;;1.90;1.80;;;;;;;;;;4998927;28;20187;-70
2021/09/18 12:05:23;;;;;;;3.05;2.45;;;;;;;;;;4996289;28;20253;-69
2021/09/18 12:07:49;;;;;;;2.30;1.70;;;;;;;;;;4991295;28;20713;-70
2021/09/18 12:10:15;;;;;;;1.40;1.30;;;;;;;;;;4992509;28;20272;-70
2021/09/18 12:12:40;;;;;;;2.70;1.65;;;;;;;;;;4993832;28;20175;-70
2021/09/18 12:15:06;;;;;;;2.08;1.75;;;;;;;;;;4989358;28;20243;-71
2021/09/18 12:17:36;;;;;;;2.22;1.50;;;;;;;;;;4995485;28;20227;-70
2021/09/18 12:20:02;;;;;;;2.20;1.25;;;;;;;;;;4990782;28;21808;-71
2021/09/18 12:22:27;;;;;;;2.05;1.30;;;;;;;;;;4997474;28;20285;-70
2021/09/18 12:24:53;;;;;;;1.95;1.40;;;;;;;;;;4995901;28;20210;-70
2021/09/18 12:30:11;;;;;;;1.52;1.20;;;;;;;;;;4970518;28;20231;-71
2021/09/18 12:32:37;;;;;;;2.75;1.40;;;;;;;;;;4967114;28;20200;-70
2021/09/18 12:35:07;;;;;;;3.05;1.45;;;;;;;;;;4971577;28;20179;-70
2021/09/18 12:37:34;;;;;;;2.60;1.70;;;;;;;;;;4971314;28;20662;-70
2021/09/18 12:40:14;;;;;;;1.70;1.27;;;;;;;;;;4968683;28;20346;-70
2021/09/18 12:42:39;;;;;;;3.05;1.65;;;;;;;;;;4963031;28;21536;-71
2021/09/18 12:45:23;;;;;;;2.43;1.40;;;;;;;;;;4968144;28;20176;-71
2021/09/18 12:47:49;;;;;;;2.65;1.73;;;;;;;;;;4966745;28;20204;-69
2021/09/18 12:50:17;;;;;;;2.03;1.48;;;;;;;;;;4965354;28;20545;-69
2021/09/18 12:52:43;;;;;;;1.70;1.25;;;;;;;;;;4966991;28;20180;-69
2021/09/18 12:55:08;;;;;;;1.40;1.15;;;;;;;;;;4965218;28;20920;-70
2021/09/18 12:57:33;;;;;;;2.57;1.43;;;;;;;;;;4968186;28;20267;-70
2021/09/18 13:00:05;;;;;;;2.58;1.55;;;;;;;;;;4964714;28;20191;-70
2021/09/18 13:02:30;;;;;;;1.80;1.20;;;;;;;;;;4971223;28;20179;-69
2021/09/18 13:04:57;;;;;;;1.53;1.30;;;;;;;;;;4972955;28;20667;-70
2021/09/18 13:07:23;;;;;;;2.63;1.48;;;;;;;;;;4965833;28;20199;-69
2021/09/18 13:09:55;;;;;;;2.65;1.65;;;;;;;;;;4966155;28;20622;-70
2021/09/18 13:12:20;;;;;;;3.15;1.58;;;;;;;;;;4963521;28;20214;-70
2021/09/18 13:14:49;;;;;;;1.40;1.30;;;;;;;;;;4965828;28;20179;-69
2021/09/18 13:17:15;;;;;;;2.55;1.25;;;;;;;;;;4968794;28;20183;-70
2021/09/18 13:19:43;;;;;;;1.65;1.35;;;;;;;;;;4966310;28;20191;-69
2021/09/18 13:22:08;;;;;;;2.50;1.58;;;;;;;;;;4969148;28;20959;-70
2021/09/18 13:24:34;;;;;;;2.40;1.58;;;;;;;;;;4969163;28;20211;-70
2021/09/18 13:26:59;;;;;;;2.27;1.77;;;;;;;;;;4968125;28;20275;-70
2021/09/18 13:29:24;;;;;;;3.07;1.70;;;;;;;;;;4967682;28;20507;-70
2021/09/18 13:31:49;;;;;;;1.87;1.47;;;;;;;;;;4976328;28;20453;-70
2021/09/18 13:34:14;;;;;;;2.00;1.70;;;;;;;;;;4960227;28;20435;-70
2021/09/18 13:36:40;;;;;;;2.42;1.48;;;;;;;;;;4951908;28;20434;-69
2021/09/18 13:39:05;;;;;;;2.65;1.55;;;;;;;;;;4966116;28;20207;-69
2021/09/18 13:41:30;;;;;;;1.97;1.77;;;;;;;;;;4966277;28;20184;-69
2021/09/18 13:43:56;;;;;;;3.25;2.58;;;;;;;;;;4966828;28;20613;-69
2021/09/18 13:46:21;;;;;;;3.20;2.55;;;;;;;;;;4967030;28;20207;-69
2021/09/18 13:48:47;;;;;;;5.40;1.97;;;;;;;;;;4965163;28;20299;-69
2021/09/18 13:51:12;;;;;;;2.17;1.70;;;;;;;;;;4969303;28;20558;-70
2021/09/18 13:53:38;;;;;;;3.63;1.92;;;;;;;;;;4963733;28;20461;-70
2021/09/18 13:56:07;;;;;;;2.50;1.80;;;;;;;;;;4968671;28;20554;-70
2021/09/18 13:58:32;;;;;;;3.40;2.50;;;;;;;;;;4965115;28;20355;-69
2021/09/18 14:00:57;;;;;;;3.43;2.60;;;;;;;;;;4964581;28;20183;-70
2021/09/18 14:03:22;;;;;;;3.37;3.07;;;;;;;;;;4968034;28;20461;-70
2021/09/18 14:05:48;;;;;;;4.43;2.20;;;;;;;;;;4969972;28;20930;-70
2021/09/18 14:08:13;;;;;;;3.15;2.67;;;;;;;;;;4961120;28;20215;-70
2021/09/18 14:10:38;;;;;;;4.38;2.70;;;;;;;;;;4969636;28;20242;-70
2021/09/18 14:13:03;;;;;;;4.27;2.80;;;;;;;;;;4968692;28;21021;-70
2021/09/18 14:15:29;;;;;;;5.25;2.58;;;;;;;;;;4970467;28;20504;-69
2021/09/18 14:17:54;;;;;;;2.30;1.80;;;;;;;;;;4973172;28;20302;-70
2021/09/18 14:20:19;;;;;;;2.17;1.97;;;;;;;;;;4966904;28;20215;-70
2021/09/18 14:22:45;;;;;;;1.98;1.70;;;;;;;;;;4975755;28;20418;-70
2021/09/18 14:25:13;;;;;;;4.80;2.20;;;;;;;;;;4968456;28;20258;-70
2021/09/18 14:27:38;;;;;;;2.30;1.83;;;;;;;;;;4970751;28;20191;-70